ěÝzenÝ letovÚho provozu ╚eskÚ republiky
Letiste: LKPD Aktualizace: 21.10.2021 10:29:29  UTC
 METAR LKPD 21.10. 10:30 ...
METAR LKPD 211030Z 25024G33KT 9999 SCT047 BKN220 18/06 Q1002 NOSIG RMK BLU BLU=
 TAF LKPD 21.10. 05:00 ...
TAF LKPD 210500Z 2106/2206 21010KT CAVOK      BECMG 2108/2111 26015G26KT      TEMPO 2106/2110 8000 RA BKN025      TEMPO 2108/2120 27022G40KT      BECMG 2120/2123 21012KT=
 WARNING LKPD 21.10. 10:28 ...
LKPD AD WRNG 1 VALID 211030/211300 SFC WSPD MAX OVR 40KT FCST=